Menomonie, WI

8:07 PM CST on February 08, 2016 (GMT -0600)
Menomonie | | Change Station
CLOSE
Current Station
Airport
Location: Menomonie,
Elevation: 896 ft
Nearby Weather Stations

Elev 896 ft 44.89 °N, 91.87 °W | Updated 12 minutes ago

Light Snow
Light Snow
14 °F
Feels Like -3 °F
N
17
Wind Variable Wind from NW
Gusts 21 mph

Today
High -- | Low -- °F
--% Chance of Precip.
Yesterday
High -- | Low -- °F
Precip. -- in
Pressure 29.91 in
Visibility 5.0 miles
Clouds Scattered Clouds 1100 ft
Mostly Cloudy 2000 ft
Overcast 12000 ft
Windchill -3 °F
Dew Point 7 °F
Humidity 75%
Rainfall 0.00 in
Snow Depth Not available.
7:18 AM 5:25 PM
New Moon, 0% visible
METAR KLUM 090155Z AUTO 31015G18KT 5SM -SN SCT011 BKN020 OVC120 M10/M14 A2991 RMK AO2 T11021139
Pressure 29.91 in
Visibility 5.0 miles
Clouds Scattered Clouds 1100 ft
Mostly Cloudy 2000 ft
Overcast 12000 ft
Windchill -3 °F
Dew Point 7 °F
Humidity 75%
Rainfall 0.00 in
Snow Depth Not available.
7:18 AM 5:25 PM
New Moon, 0% visible
METAR KLUM 090155Z AUTO 31015G18KT 5SM -SN SCT011 BKN020 OVC120 M10/M14 A2991 RMK AO2 T11021139

10-Day Weather Forecast

Almanac

Astronomy

Feb. 08, 2016 Rise Set
Actual Time
Civil Twilight
Nautical Twilight
Astronomical Twilight
Moon
Length of Visible Light
Length of Day
Tomorrow will be .
, % of the Moon is Illuminated

Today's Extremes

State Highs State Lows

Community

WunderPhotos

Upload Photos

1,891,527 photos uploaded!

WunderBlog® & News

Nearby

Air Quality

  Air Quality AQ Index Pollutant
Not available.

Snow Depth

Station Depth Elevation

Earthquake Activity

City Distance Mag. Time & Date
Minimum magnitude displayed is 2.5.

Coastal Water Temperatures

Place Temperature

Stations

Nearby Weather Stations

Station Location Temp. Windchill Dew Point Humidity Wind Precip. Elev Updated Type
                   

Watches & Warnings

There are currently no watches in effect.